createdAt,value
2019-06-26T00:00:20.863Z,6.95
2019-06-26T00:02:50.480Z,6.62
2019-06-26T00:05:20.276Z,6.87
2019-06-26T00:07:49.899Z,7.17
2019-06-26T00:10:19.826Z,7.35
2019-06-26T00:12:49.443Z,6.80
2019-06-26T00:15:20.004Z,6.53
2019-06-26T00:17:49.629Z,6.90
2019-06-26T00:20:19.919Z,6.85
2019-06-26T00:22:49.527Z,6.75
2019-06-26T00:25:19.173Z,7.00
2019-06-26T00:27:48.814Z,7.22
2019-06-26T00:30:18.928Z,7.42
2019-06-26T00:32:48.557Z,7.20
2019-06-26T00:35:18.276Z,7.45
2019-06-26T00:37:47.890Z,7.30
2019-06-26T00:40:17.777Z,7.20
2019-06-26T00:42:47.406Z,7.25
2019-06-26T00:45:17.261Z,7.08
2019-06-26T00:47:47.476Z,6.60
2019-06-26T00:50:18.727Z,6.35
2019-06-26T00:52:48.554Z,7.42
2019-06-26T00:55:18.245Z,6.80
2019-06-26T00:57:47.958Z,7.28
2019-06-26T01:00:18.185Z,7.53
2019-06-26T01:02:47.838Z,7.35
2019-06-26T01:05:17.539Z,7.28
2019-06-26T01:07:47.198Z,7.70
2019-06-26T01:10:17.534Z,7.62
2019-06-26T01:12:47.242Z,8.38
2019-06-26T01:15:17.071Z,7.75
2019-06-26T01:17:46.712Z,7.80
2019-06-26T01:20:16.827Z,7.60
2019-06-26T01:22:46.566Z,7.50
2019-06-26T01:25:16.499Z,8.08
2019-06-26T01:27:46.126Z,7.72
2019-06-26T01:30:16.380Z,7.47
2019-06-26T01:32:46.086Z,7.90
2019-06-26T01:35:15.875Z,7.67
2019-06-26T01:37:45.566Z,7.53
2019-06-26T01:40:15.723Z,7.80
2019-06-26T01:42:45.426Z,8.00
2019-06-26T01:45:15.972Z,8.00
2019-06-26T01:47:45.869Z,7.12
2019-06-26T01:50:15.917Z,7.17
2019-06-26T01:52:45.652Z,7.85
2019-06-26T01:55:15.497Z,7.47
2019-06-26T01:57:45.117Z,8.03
2019-06-26T02:00:16.737Z,8.28
2019-06-26T02:02:46.356Z,7.85
2019-06-26T02:05:16.180Z,7.72
2019-06-26T02:07:45.910Z,7.28
2019-06-26T02:10:16.138Z,7.75
2019-06-26T02:12:45.805Z,7.80
2019-06-26T02:15:16.332Z,8.28
2019-06-26T02:17:45.979Z,8.05
2019-06-26T02:20:15.734Z,8.15
2019-06-26T02:22:45.479Z,8.15
2019-06-26T02:25:15.381Z,8.23
2019-06-26T02:27:45.067Z,7.97
2019-06-26T02:30:15.517Z,8.25
2019-06-26T02:32:45.157Z,7.80
2019-06-26T02:35:15.928Z,8.03
2019-06-26T02:37:45.779Z,8.53
2019-06-26T02:40:15.945Z,8.58
2019-06-26T02:42:45.566Z,8.20
2019-06-26T02:45:16.358Z,8.00
2019-06-26T02:47:45.958Z,8.15
2019-06-26T02:50:15.802Z,8.33
2019-06-26T02:52:45.433Z,7.70
2019-06-26T02:55:15.671Z,7.47
2019-06-26T02:57:45.295Z,8.18
2019-06-26T03:00:16.534Z,8.03
2019-06-26T03:02:46.255Z,7.90
2019-06-26T03:05:16.005Z,7.67
2019-06-26T03:07:45.660Z,8.38
2019-06-26T03:10:15.785Z,7.90
2019-06-26T03:12:45.447Z,8.28
2019-06-26T03:15:15.582Z,8.20
2019-06-26T03:17:54.675Z,8.43
2019-06-26T03:20:21.153Z,8.10
2019-06-26T03:22:50.776Z,8.05
2019-06-26T03:25:20.422Z,8.43
2019-06-26T03:27:50.124Z,7.92
2019-06-26T03:30:20.777Z,7.72
2019-06-26T03:32:50.433Z,8.90
2019-06-26T03:35:20.203Z,8.20
2019-06-26T03:37:49.826Z,8.50
2019-06-26T03:40:20.075Z,8.88
2019-06-26T03:42:49.705Z,8.90
2019-06-26T03:45:25.501Z,8.65
2019-06-26T03:47:51.085Z,9.73
2019-06-26T03:50:21.888Z,8.60
2019-06-26T03:52:52.143Z,8.88
2019-06-26T03:55:21.773Z,8.33
2019-06-26T03:57:51.421Z,7.75
2019-06-26T04:00:40.331Z,8.05
2019-06-26T04:03:12.101Z,7.35
2019-06-26T04:05:41.719Z,8.40
2019-06-26T04:08:11.368Z,8.00
2019-06-26T04:10:43.440Z,9.10
2019-06-26T04:13:12.373Z,8.48
2019-06-26T04:15:43.051Z,8.35
2019-06-26T04:18:12.875Z,9.08
2019-06-26T04:20:42.526Z,8.63
2019-06-26T04:23:12.511Z,8.38
2019-06-26T04:25:42.133Z,8.08
2019-06-26T04:28:11.762Z,8.18
2019-06-26T04:30:41.418Z,8.98
2019-06-26T04:33:11.051Z,10.03
2019-06-26T04:35:40.833Z,9.08
2019-06-26T04:38:10.451Z,8.60
2019-06-26T04:40:40.109Z,8.95
2019-06-26T04:43:09.722Z,9.58
2019-06-26T04:45:39.538Z,9.38
2019-06-26T04:48:09.186Z,8.93
2019-06-26T04:50:38.836Z,9.15
2019-06-26T04:53:08.458Z,9.80
2019-06-26T04:55:38.120Z,9.60
2019-06-26T04:58:08.417Z,8.45
2019-06-26T05:00:38.095Z,9.70
2019-06-26T05:03:07.937Z,8.95
2019-06-26T05:05:39.836Z,8.68
2019-06-26T05:08:08.991Z,8.90
2019-06-26T05:10:38.621Z,8.68
2019-06-26T05:13:08.341Z,9.23
2019-06-26T05:15:37.978Z,9.60
2019-06-26T05:18:07.693Z,9.08
2019-06-26T05:20:37.321Z,8.85
2019-06-26T05:23:06.973Z,10.20
2019-06-26T05:25:36.592Z,9.00
2019-06-26T05:28:08.379Z,10.08
2019-06-26T05:30:37.616Z,9.10
2019-06-26T05:33:07.250Z,9.80
2019-06-26T05:35:36.897Z,9.88
2019-06-26T05:38:06.601Z,10.32
2019-06-26T05:40:36.236Z,10.20
2019-06-26T05:43:06.109Z,9.78
2019-06-26T05:45:35.798Z,10.65
2019-06-26T05:48:05.683Z,10.10
2019-06-26T05:50:35.407Z,10.35
2019-06-26T05:53:05.280Z,10.08
2019-06-26T05:55:34.967Z,9.60
2019-06-26T05:58:05.149Z,10.20
2019-06-26T06:00:34.784Z,10.58
2019-06-26T06:03:04.528Z,10.40
2019-06-26T06:05:34.215Z,9.68
2019-06-26T06:08:03.944Z,9.85
2019-06-26T06:10:33.640Z,10.30
2019-06-26T06:13:03.307Z,10.53
2019-06-26T06:15:32.929Z,10.40
2019-06-26T06:18:02.663Z,9.78
2019-06-26T06:20:41.770Z,10.03
2019-06-26T06:23:11.485Z,9.43
2019-06-26T06:25:41.110Z,9.25
2019-06-26T06:28:10.757Z,9.53
2019-06-26T06:30:40.376Z,9.53
2019-06-26T06:33:10.008Z,10.08
2019-06-26T06:35:39.661Z,10.55
2019-06-26T06:38:09.285Z,10.08
2019-06-26T06:40:38.934Z,9.90
2019-06-26T06:43:08.567Z,9.70
2019-06-26T06:45:38.280Z,9.90
2019-06-26T06:48:07.985Z,10.03
2019-06-26T06:50:37.649Z,9.48
2019-06-26T06:53:07.275Z,9.33
2019-06-26T06:55:36.909Z,9.30
2019-06-26T06:58:06.556Z,9.30
2019-06-26T07:00:36.187Z,10.05
2019-06-26T07:03:06.346Z,9.85
2019-06-26T07:05:35.975Z,9.93
2019-06-26T07:08:05.773Z,9.75
2019-06-26T07:10:35.429Z,10.70
2019-06-26T07:13:05.097Z,10.15
2019-06-26T07:15:34.752Z,9.78
2019-06-26T07:18:04.376Z,9.35
2019-06-26T07:20:34.098Z,9.50
2019-06-26T07:23:03.731Z,9.38
2019-06-26T07:25:33.380Z,10.03
2019-06-26T07:28:03.108Z,9.45
2019-06-26T07:30:32.877Z,9.40
2019-06-26T07:33:02.487Z,9.78
2019-06-26T07:35:32.151Z,9.50
2019-06-26T07:38:01.953Z,10.05
2019-06-26T07:40:31.679Z,9.65
2019-06-26T07:43:01.339Z,9.53
2019-06-26T07:45:30.957Z,10.08
2019-06-26T07:48:00.609Z,9.40
2019-06-26T07:50:32.600Z,10.25
2019-06-26T07:53:01.621Z,9.73
2019-06-26T07:55:31.245Z,9.93
2019-06-26T07:58:01.085Z,9.60
2019-06-26T08:00:31.877Z,9.50
2019-06-26T08:03:04.321Z,9.88
2019-06-26T08:05:32.982Z,9.58
2019-06-26T08:08:02.607Z,9.63
2019-06-26T08:10:32.303Z,10.00
2019-06-26T08:13:01.957Z,9.53
2019-06-26T08:15:31.615Z,9.13
2019-06-26T08:18:01.681Z,9.40
2019-06-26T08:20:31.458Z,8.93
2019-06-26T08:23:01.084Z,8.95
2019-06-26T08:25:30.736Z,9.18
2019-06-26T08:28:00.428Z,9.95
2019-06-26T08:30:30.194Z,9.45
2019-06-26T08:32:59.821Z,9.70
2019-06-26T08:35:29.451Z,9.95
2019-06-26T08:38:09.410Z,9.55
2019-06-26T08:40:30.516Z,9.45
2019-06-26T08:43:00.164Z,9.48
2019-06-26T08:45:29.862Z,9.70
2019-06-26T08:48:13.394Z,9.68
2019-06-26T08:50:30.858Z,9.90
2019-06-26T08:53:00.510Z,9.73
2019-06-26T08:55:30.150Z,10.30
2019-06-26T08:57:59.793Z,9.70
2019-06-26T09:00:29.427Z,10.13
2019-06-26T09:02:59.040Z,9.65
2019-06-26T09:05:28.765Z,10.45
2019-06-26T09:07:58.452Z,9.78
2019-06-26T09:10:28.212Z,9.88
2019-06-26T09:12:57.857Z,10.05
2019-06-26T09:15:27.513Z,10.72
2019-06-26T09:17:57.305Z,10.90
2019-06-26T09:20:39.295Z,9.93
2019-06-26T09:23:09.458Z,10.53
2019-06-26T09:25:39.153Z,10.40
2019-06-26T09:28:08.865Z,10.28
2019-06-26T09:30:38.714Z,10.53
2019-06-26T09:33:08.407Z,10.50
2019-06-26T09:35:38.176Z,10.45
2019-06-26T09:38:07.832Z,9.83
2019-06-26T09:40:37.471Z,11.68
2019-06-26T09:43:07.193Z,10.78
2019-06-26T09:45:36.885Z,10.88
2019-06-26T09:48:06.807Z,10.48
2019-06-26T09:50:36.515Z,10.72
2019-06-26T09:53:06.151Z,11.18
2019-06-26T09:55:35.797Z,11.18
2019-06-26T09:58:05.428Z,11.05
2019-06-26T10:00:35.287Z,10.18
2019-06-26T10:03:06.062Z,11.18
2019-06-26T10:05:35.716Z,10.78
2019-06-26T10:08:05.343Z,11.20
2019-06-26T10:10:34.985Z,10.78
2019-06-26T10:13:04.684Z,11.05
2019-06-26T10:15:34.316Z,10.75
2019-06-26T10:18:04.043Z,10.82
2019-06-26T10:20:33.664Z,10.90
2019-06-26T10:23:03.328Z,10.65
2019-06-26T10:25:32.987Z,10.65
2019-06-26T10:28:02.777Z,11.12
2019-06-26T10:30:32.398Z,10.90
2019-06-26T10:33:02.129Z,10.82
2019-06-26T10:35:31.780Z,10.93
2019-06-26T10:38:01.437Z,11.45
2019-06-26T10:40:31.209Z,11.10
2019-06-26T10:43:00.932Z,10.05
2019-06-26T10:45:30.623Z,10.30
2019-06-26T10:48:00.252Z,9.83
2019-06-26T10:50:29.909Z,10.55
2019-06-26T10:52:59.533Z,9.98
2019-06-26T10:55:29.315Z,8.25
2019-06-26T10:57:58.957Z,8.98
2019-06-26T11:00:29.402Z,8.60
2019-06-26T11:02:59.034Z,8.55
2019-06-26T11:05:28.946Z,9.23
2019-06-26T11:07:58.941Z,9.33
2019-06-26T11:10:28.658Z,9.20
2019-06-26T11:12:58.281Z,9.00
2019-06-26T11:15:28.404Z,9.80
2019-06-26T11:17:58.031Z,9.48
2019-06-26T11:20:27.760Z,9.58
2019-06-26T11:22:57.393Z,9.03
2019-06-26T11:25:27.090Z,9.30
2019-06-26T11:27:56.736Z,9.03
2019-06-26T11:30:26.763Z,8.85
2019-06-26T11:32:56.414Z,8.55
2019-06-26T11:35:26.028Z,9.28
2019-06-26T11:37:55.680Z,9.18
2019-06-26T11:40:25.363Z,9.88
2019-06-26T11:42:55.010Z,9.10
2019-06-26T11:45:24.706Z,8.35
2019-06-26T11:47:54.361Z,9.45
2019-06-26T11:50:24.195Z,8.70
2019-06-26T11:52:54.081Z,8.63
2019-06-26T11:55:23.921Z,8.65
2019-06-26T11:57:53.549Z,9.20
2019-06-26T12:00:25.115Z,8.65
2019-06-26T12:02:54.808Z,8.93
2019-06-26T12:05:24.698Z,8.58
2019-06-26T12:07:54.430Z,7.78
2019-06-26T12:10:24.372Z,7.65
2019-06-26T12:12:54.095Z,7.97
2019-06-26T12:15:25.219Z,8.00
2019-06-26T12:17:55.111Z,8.65
2019-06-26T12:20:24.889Z,8.15
2019-06-26T12:22:54.952Z,7.95
2019-06-26T12:25:24.811Z,7.72
2019-06-26T12:27:54.717Z,7.42
2019-06-26T12:30:25.297Z,7.87
2019-06-26T12:33:02.811Z,7.55
2019-06-26T12:35:26.696Z,7.55
2019-06-26T12:37:56.403Z,8.15
2019-06-26T12:40:26.201Z,7.60
2019-06-26T12:42:56.027Z,7.55
2019-06-26T12:45:25.780Z,7.80
2019-06-26T12:47:55.951Z,7.83
2019-06-26T12:50:35.262Z,7.67
2019-06-26T12:52:58.916Z,7.83
2019-06-26T12:55:32.685Z,7.55
2019-06-26T12:58:12.278Z,7.90
2019-06-26T13:00:31.401Z,7.75
2019-06-26T13:03:01.020Z,8.10
2019-06-26T13:05:30.643Z,8.20
2019-06-26T13:08:00.289Z,8.58
2019-06-26T13:10:30.063Z,7.65
2019-06-26T13:12:59.711Z,8.38
2019-06-26T13:15:29.407Z,7.97
2019-06-26T13:18:01.327Z,8.20
2019-06-26T13:20:30.631Z,8.00
2019-06-26T13:23:00.750Z,7.90
2019-06-26T13:25:31.018Z,8.05
2019-06-26T13:28:01.130Z,8.05
2019-06-26T13:30:39.787Z,8.35
2019-06-26T13:33:09.718Z,7.42
2019-06-26T13:35:39.565Z,8.53
2019-06-26T13:38:09.623Z,8.48
2019-06-26T13:40:41.111Z,8.43
2019-06-26T13:43:11.657Z,8.20
2019-06-26T13:45:41.646Z,8.45
2019-06-26T13:48:11.693Z,8.63
2019-06-26T13:50:41.482Z,8.78
2019-06-26T13:53:11.174Z,8.63
2019-06-26T13:55:42.038Z,9.28
2019-06-26T13:58:11.684Z,7.70
2019-06-26T14:00:41.380Z,7.97
2019-06-26T14:03:11.095Z,7.80
2019-06-26T14:05:40.794Z,8.25
2019-06-26T14:08:10.442Z,7.60
2019-06-26T14:10:40.064Z,7.67
2019-06-26T14:13:09.800Z,8.13
2019-06-26T14:15:39.394Z,7.55
2019-06-26T14:18:09.090Z,7.62
2019-06-26T14:20:38.740Z,7.70
2019-06-26T14:23:08.361Z,7.60
2019-06-26T14:25:38.679Z,7.25
2019-06-26T14:28:08.308Z,7.50
2019-06-26T14:30:37.964Z,7.80
2019-06-26T14:33:07.582Z,7.85
2019-06-26T14:35:37.232Z,7.47
2019-06-26T14:38:06.931Z,8.20
2019-06-26T14:40:36.657Z,8.20
2019-06-26T14:43:06.285Z,8.03
2019-06-26T14:45:35.912Z,7.90
2019-06-26T14:48:05.653Z,7.33
2019-06-26T14:50:35.249Z,8.05
2019-06-26T14:53:04.902Z,7.00
2019-06-26T14:55:34.523Z,7.67
2019-06-26T14:58:04.168Z,8.28
2019-06-26T15:00:33.798Z,7.25
2019-06-26T15:03:03.414Z,7.75
2019-06-26T15:05:33.066Z,7.65
2019-06-26T15:08:02.687Z,7.87
2019-06-26T15:10:32.332Z,7.35
2019-06-26T15:13:02.024Z,7.35
2019-06-26T15:15:31.677Z,7.62
2019-06-26T15:18:01.302Z,8.33
2019-06-26T15:20:30.954Z,7.62
2019-06-26T15:23:00.586Z,7.97
2019-06-26T15:25:30.245Z,7.20
2019-06-26T15:27:59.861Z,7.70
2019-06-26T15:30:29.571Z,6.90
2019-06-26T15:32:59.320Z,7.53
2019-06-26T15:35:28.996Z,7.37
2019-06-26T15:37:58.643Z,7.28
2019-06-26T15:40:28.261Z,7.60
2019-06-26T15:42:57.908Z,7.75
2019-06-26T15:45:27.531Z,7.60
2019-06-26T15:47:57.200Z,7.85
2019-06-26T15:50:26.799Z,7.65
2019-06-26T15:52:56.453Z,7.15
2019-06-26T15:55:26.099Z,6.72
2019-06-26T15:57:55.722Z,7.10
2019-06-26T16:00:25.474Z,7.33
2019-06-26T16:02:55.078Z,6.60
2019-06-26T16:05:24.807Z,7.05
2019-06-26T16:07:54.510Z,7.20
2019-06-26T16:10:24.301Z,7.35
2019-06-26T16:12:53.995Z,7.05
2019-06-26T16:15:23.944Z,6.80
2019-06-26T16:17:53.578Z,7.12
2019-06-26T16:20:23.731Z,7.17
2019-06-26T16:22:53.471Z,7.08
2019-06-26T16:25:23.116Z,7.72
2019-06-26T16:28:04.802Z,10.32
2019-06-26T16:30:24.859Z,9.80
2019-06-26T16:32:56.829Z,8.75
2019-06-26T16:35:25.928Z,7.95
2019-06-26T16:37:55.620Z,7.67
2019-06-26T16:40:25.241Z,7.72
2019-06-26T16:42:54.867Z,9.58
2019-06-26T16:45:24.659Z,9.85
2019-06-26T16:47:54.284Z,8.33
2019-06-26T16:50:23.941Z,7.53
2019-06-26T16:52:53.556Z,7.33
2019-06-26T16:55:23.349Z,7.67
2019-06-26T16:57:52.981Z,8.00
2019-06-26T17:00:23.121Z,7.85
2019-06-26T17:02:52.825Z,7.92
2019-06-26T17:05:22.831Z,7.33
2019-06-26T17:07:52.451Z,7.17
2019-06-26T17:10:22.982Z,7.25
2019-06-26T17:12:52.630Z,7.08
2019-06-26T17:15:22.391Z,7.08
2019-06-26T17:17:52.037Z,7.55
2019-06-26T17:20:22.726Z,7.45
2019-06-26T17:23:05.223Z,7.15
2019-06-26T17:25:23.801Z,7.75
2019-06-26T17:27:53.804Z,7.70
2019-06-26T17:30:23.760Z,7.03
2019-06-26T17:32:53.392Z,7.40
2019-06-26T17:35:23.043Z,7.50
2019-06-26T17:37:52.952Z,7.70
2019-06-26T17:40:22.909Z,7.33
2019-06-26T17:42:52.687Z,7.70
2019-06-26T17:45:22.540Z,7.58
2019-06-26T17:47:52.170Z,7.28
2019-06-26T17:50:21.886Z,7.35
2019-06-26T17:52:51.515Z,7.87
2019-06-26T17:55:21.315Z,8.15
2019-06-26T17:57:50.924Z,7.83
2019-06-26T18:00:25.146Z,7.67
2019-06-26T18:02:54.796Z,7.87
2019-06-26T18:05:24.438Z,7.90
2019-06-26T18:07:54.086Z,8.28
2019-06-26T18:10:23.714Z,8.08
2019-06-26T18:12:53.438Z,8.13
2019-06-26T18:15:23.066Z,8.13
2019-06-26T18:17:52.715Z,8.80
2019-06-26T18:20:22.354Z,7.92
2019-06-26T18:23:05.767Z,8.25
2019-06-26T18:25:23.417Z,7.85
2019-06-26T18:27:53.136Z,8.20
2019-06-26T18:30:23.092Z,8.93
2019-06-26T18:32:52.700Z,8.80
2019-06-26T18:35:22.383Z,8.33
2019-06-26T18:37:52.033Z,8.50
2019-06-26T18:40:21.863Z,8.20
2019-06-26T18:42:51.515Z,8.58
2019-06-26T18:45:21.280Z,8.53
2019-06-26T18:47:51.055Z,8.23
2019-06-26T18:50:20.840Z,8.55
2019-06-26T18:52:50.502Z,8.33
2019-06-26T18:55:20.329Z,9.00
2019-06-26T18:57:50.124Z,8.53
2019-06-26T19:00:20.462Z,9.20
2019-06-26T19:02:50.191Z,8.55
2019-06-26T19:05:19.891Z,9.55
2019-06-26T19:07:49.537Z,9.43
2019-06-26T19:10:19.419Z,9.08
2019-06-26T19:12:49.080Z,9.35
2019-06-26T19:15:19.040Z,8.55
2019-06-26T19:17:48.767Z,8.83
2019-06-26T19:20:19.231Z,8.70
2019-06-26T19:22:48.950Z,8.95
2019-06-26T19:25:18.712Z,9.08
2019-06-26T19:27:48.367Z,8.38
2019-06-26T19:30:18.593Z,9.00
2019-06-26T19:32:48.252Z,8.85
2019-06-26T19:35:19.224Z,9.00
2019-06-26T19:37:49.487Z,9.50
2019-06-26T19:40:19.102Z,8.80
2019-06-26T19:42:48.725Z,8.93
2019-06-26T19:45:18.779Z,8.88
2019-06-26T19:47:48.403Z,9.05
2019-06-26T19:50:18.351Z,8.30
2019-06-26T19:52:47.985Z,8.55
2019-06-26T19:55:17.791Z,8.95
2019-06-26T19:57:47.426Z,8.50
2019-06-26T20:00:18.463Z,8.15
2019-06-26T20:02:48.087Z,8.93
2019-06-26T20:05:18.748Z,8.15
2019-06-26T20:07:48.398Z,8.85
2019-06-26T20:10:18.355Z,9.30
2019-06-26T20:12:47.984Z,9.00
2019-06-26T20:15:17.764Z,8.90
2019-06-26T20:17:47.395Z,9.50
2019-06-26T20:20:17.255Z,8.60
2019-06-26T20:22:46.883Z,9.15
2019-06-26T20:25:17.047Z,8.80
2019-06-26T20:27:46.985Z,8.85
2019-06-26T20:30:16.899Z,8.35
2019-06-26T20:32:46.525Z,9.48
2019-06-26T20:35:16.175Z,8.73
2019-06-26T20:37:45.808Z,9.98
2019-06-26T20:40:15.652Z,9.08
2019-06-26T20:42:45.293Z,9.08
2019-06-26T20:45:16.531Z,8.93
2019-06-26T20:47:46.143Z,9.20
2019-06-26T20:50:16.398Z,9.75
2019-06-26T20:52:46.016Z,9.70
2019-06-26T20:55:15.741Z,10.53
2019-06-26T20:57:45.367Z,9.63
2019-06-26T21:00:15.741Z,9.88
2019-06-26T21:02:45.443Z,9.65
2019-06-26T21:05:15.093Z,9.45
2019-06-26T21:07:44.725Z,10.05
2019-06-26T21:10:14.443Z,9.10
2019-06-26T21:12:44.070Z,9.63
2019-06-26T21:15:13.930Z,9.60
2019-06-26T21:17:43.584Z,9.65
2019-06-26T21:20:13.354Z,9.23
2019-06-26T21:22:42.986Z,9.20
2019-06-26T21:25:19.142Z,8.93
2019-06-26T21:27:44.148Z,9.60
2019-06-26T21:30:14.796Z,9.48
2019-06-26T21:32:44.430Z,9.63
2019-06-26T21:35:14.123Z,9.75
2019-06-26T21:37:44.446Z,10.38
2019-06-26T21:40:14.532Z,9.75
2019-06-26T21:42:44.186Z,9.55
2019-06-26T21:45:14.295Z,9.60
2019-06-26T21:47:43.944Z,9.78
2019-06-26T21:50:13.743Z,10.32
2019-06-26T21:52:43.395Z,9.55
2019-06-26T21:55:13.229Z,9.70
2019-06-26T21:57:42.874Z,9.08
2019-06-26T22:00:14.110Z,8.85
2019-06-26T22:02:43.921Z,9.88
2019-06-26T22:05:14.215Z,9.73
2019-06-26T22:07:44.066Z,10.60
2019-06-26T22:10:14.406Z,10.08
2019-06-26T22:12:44.041Z,9.73
2019-06-26T22:15:14.918Z,9.85
2019-06-26T22:17:44.563Z,9.75
2019-06-26T22:20:16.265Z,9.88
2019-06-26T22:22:46.061Z,10.20
2019-06-26T22:25:15.920Z,9.53
2019-06-26T22:27:45.577Z,9.38
2019-06-26T22:30:16.013Z,9.88
2019-06-26T22:32:45.667Z,9.25
2019-06-26T22:35:15.639Z,9.48
2019-06-26T22:37:45.293Z,9.70
2019-06-26T22:40:15.124Z,9.40
2019-06-26T22:42:44.961Z,9.93
2019-06-26T22:45:15.025Z,10.18
2019-06-26T22:47:44.731Z,10.15
2019-06-26T22:50:14.973Z,10.45
2019-06-26T22:52:45.382Z,9.45
2019-06-26T22:55:15.225Z,8.88
2019-06-26T22:57:45.309Z,9.18
2019-06-26T23:00:16.615Z,9.35
2019-06-26T23:02:46.333Z,9.63
2019-06-26T23:05:16.103Z,10.95
2019-06-26T23:07:45.764Z,10.43
2019-06-26T23:10:16.098Z,9.95
2019-06-26T23:12:46.046Z,10.40
2019-06-26T23:15:16.401Z,10.72
2019-06-26T23:17:46.054Z,10.25
2019-06-26T23:20:16.411Z,10.13
2019-06-26T23:22:46.057Z,10.93
2019-06-26T23:25:16.028Z,10.20
2019-06-26T23:27:45.762Z,10.20
2019-06-26T23:30:19.926Z,9.68
2019-06-26T23:32:49.722Z,10.60
2019-06-26T23:35:19.427Z,10.50
2019-06-26T23:37:49.160Z,10.80
2019-06-26T23:40:19.428Z,10.03
2019-06-26T23:42:49.089Z,10.25
2019-06-26T23:45:19.827Z,10.08
2019-06-26T23:47:49.458Z,10.10
2019-06-26T23:50:19.384Z,10.03
2019-06-26T23:52:49.021Z,10.72
2019-06-26T23:55:18.722Z,9.95
2019-06-26T23:57:58.513Z,10.72
